Time;durP1;ratioP1;P1;durP2;ratioP2;P2;SDS_P1;SDS_P2;PMS_P1;PMS_P2;Temp;Humidity;BMP_temperature;BMP_pressure;BME280_temperature;BME280_humidity;BME280_pressure;Samples;Min_cycle;Max_cycle;Signal;HPM_P1;HPM_P2
2023/12/18 00:01:52;;;;;;;8.17;5.80;;;7.20;99.90;;;6.35;100.00;102380.22;4996027;28;20266;-76
2023/12/18 00:04:19;;;;;;;9.27;5.83;;;7.10;99.90;;;6.36;100.00;102379.28;5004669;28;20238;-77
2023/12/18 00:06:49;;;;;;;24.03;9.80;;;7.10;99.90;;;6.36;100.00;102379.28;5000651;28;20647;-77
2023/12/18 00:09:17;;;;;;;38.50;13.97;;;7.10;99.90;;;6.38;100.00;102377.38;5003977;28;20337;-77
2023/12/18 00:11:45;;;;;;;39.40;13.97;;;7.10;99.90;;;6.36;99.64;102381.94;5003762;28;20207;-77
2023/12/18 00:14:13;;;;;;;36.77;13.63;;;7.10;99.90;;;6.36;99.43;102378.44;5004560;28;20227;-78
2023/12/18 00:16:41;;;;;;;60.43;21.70;;;7.10;99.90;;;6.37;98.85;102386.28;5003369;28;20294;-77
2023/12/18 00:19:10;;;;;;;54.93;18.50;;;7.10;99.90;;;6.36;98.64;102376.63;5000074;28;20267;-77
2023/12/18 00:21:38;;;;;;;52.83;19.87;;;7.10;99.90;;;6.35;97.00;102380.22;5003256;28;20321;-77
2023/12/18 00:24:08;;;;;;;48.80;19.33;;;7.10;99.90;;;6.34;96.87;102381.16;5003597;28;20709;-75
2023/12/18 00:26:36;;;;;;;48.40;18.50;;;7.10;99.90;;;6.31;96.54;102381.34;5002672;28;20311;-75
2023/12/18 00:29:04;;;;;;;25.10;11.07;;;7.00;99.90;;;6.23;96.02;102372.16;5001891;28;20239;-75
2023/12/18 00:31:33;;;;;;;30.60;13.73;;;6.90;99.90;;;6.18;95.92;102375.06;5003351;28;20937;-75
2023/12/18 00:34:01;;;;;;;27.30;11.57;;;7.30;99.90;;;6.19;96.40;102375.94;5003996;28;20231;-75
2023/12/18 00:36:29;;;;;;;23.43;10.47;;;6.80;99.90;;;6.11;95.24;102381.69;5004133;28;20265;-76
2023/12/18 00:38:58;;;;;;;18.50;9.33;;;6.80;99.90;;;6.10;94.76;102385.31;5003493;28;20238;-78
2023/12/18 00:41:27;;;;;;;38.73;15.87;;;6.80;99.90;;;6.05;95.60;102388.25;5003254;28;20207;-75
2023/12/18 00:43:55;;;;;;;34.47;16.93;;;6.70;99.90;;;6.06;97.10;102394.44;5000413;28;20314;-78
2023/12/18 00:46:25;;;;;;;14.77;7.80;;;6.70;99.90;;;6.05;98.66;102384.75;5003603;28;20634;-75
2023/12/18 00:48:53;;;;;;;9.03;5.50;;;6.80;99.90;;;6.03;98.64;102386.63;5003309;28;20423;-75
2023/12/18 00:51:22;;;;;;;11.63;6.23;;;6.80;99.90;;;6.00;99.02;102385.00;5002283;28;20204;-78
2023/12/18 00:53:50;;;;;;;16.13;7.83;;;6.80;99.90;;;5.99;98.49;102388.59;5003097;28;20231;-75
2023/12/18 00:56:18;;;;;;;20.10;9.10;;;6.80;99.90;;;5.96;97.65;102390.56;5003305;28;20805;-78
2023/12/18 00:58:48;;;;;;;17.50;8.50;;;6.70;99.90;;;5.99;98.86;102379.78;5003618;28;20375;-78
2023/12/18 01:01:16;;;;;;;19.47;8.97;;;6.70;99.90;;;5.99;99.18;102383.28;5002316;28;20266;-75
2023/12/18 01:03:44;;;;;;;16.40;8.93;;;6.80;99.90;;;6.01;99.52;102378.75;5002840;28;20227;-77
2023/12/18 01:06:12;;;;;;;17.60;7.87;;;6.80;99.90;;;6.03;99.56;102383.94;5003303;28;20919;-76
2023/12/18 01:08:41;;;;;;;10.57;6.20;;;6.80;99.90;;;6.05;99.52;102382.06;5003069;28;20234;-76
2023/12/18 01:11:09;;;;;;;9.87;6.03;;;6.80;99.90;;;6.07;99.33;102393.47;4994198;28;20693;-77
2023/12/18 01:13:37;;;;;;;14.30;6.80;;;6.90;99.90;;;6.08;99.89;102396.03;5003475;28;20231;-75
2023/12/18 01:16:07;;;;;;;12.47;7.00;;;6.90;99.90;;;6.09;99.91;102384.47;5003556;28;20227;-77
2023/12/18 01:18:35;;;;;;;15.93;8.50;;;6.90;99.90;;;6.09;100.00;102383.63;5003326;28;20223;-78
2023/12/18 01:21:04;;;;;;;14.00;7.90;;;6.90;99.90;;;6.10;100.00;102394.13;4994136;28;20223;-76
2023/12/18 01:23:32;;;;;;;12.53;7.73;;;6.90;99.90;;;6.10;100.00;102387.97;5000925;28;20251;-75
2023/12/18 01:26:00;;;;;;;12.13;7.47;;;6.90;99.90;;;6.12;100.00;102383.44;4999876;28;20207;-77
2023/12/18 01:28:28;;;;;;;15.83;8.77;;;7.00;99.90;;;6.13;99.88;102385.97;5002525;28;20200;-75
2023/12/18 01:30:56;;;;;;;12.07;7.50;;;7.00;99.90;;;6.15;100.00;102385.91;4998271;28;20208;-76
2023/12/18 01:33:26;;;;;;;18.27;8.50;;;7.00;99.90;;;6.21;99.97;102396.16;5003267;28;20234;-76
2023/12/18 01:35:54;;;;;;;13.67;8.13;;;7.00;99.90;;;6.20;99.72;102398.94;5003747;28;20334;-76
2023/12/18 01:38:22;;;;;;;16.70;8.30;;;7.10;99.90;;;6.19;99.56;102392.75;5003124;28;20227;-77
2023/12/18 01:40:50;;;;;;;15.83;8.63;;;7.00;99.90;;;6.18;99.27;102392.81;5002153;28;20219;-76
2023/12/18 01:43:26;;;;;;;15.57;8.87;;;7.00;99.90;;;6.17;99.07;102384.00;5002343;28;20236;-76
2023/12/18 01:45:58;;;;;;;14.40;9.03;;;7.00;99.90;;;6.19;98.65;102392.75;4998711;28;20207;-76
2023/12/18 01:48:31;;;;;;;16.83;10.67;;;7.00;99.90;;;6.20;98.42;102383.78;4999673;28;20290;-77
2023/12/18 01:51:01;;;;;;;16.23;9.40;;;7.50;99.90;;;6.21;97.71;102384.66;5002400;28;20246;-76
2023/12/18 01:53:34;;;;;;;15.67;10.03;;;7.10;99.90;;;6.20;97.50;102388.28;5002802;28;20657;-77
2023/12/18 01:56:04;;;;;;;16.97;9.60;;;7.10;99.90;;;6.22;97.19;102386.38;5003202;28;20203;-77
2023/12/18 01:58:35;;;;;;;17.10;10.30;;;7.10;99.90;;;6.22;96.95;102392.56;5003360;28;20354;-78
2023/12/18 02:01:04;;;;;;;16.47;9.73;;;6.90;99.90;;;6.22;96.97;102386.38;5002191;28;20295;-75
2023/12/18 02:03:35;;;;;;;15.07;10.37;;;7.10;99.90;;;6.20;96.53;102375.81;5003452;28;20787;-76
2023/12/18 02:06:06;;;;;;;17.80;10.90;;;7.10;99.90;;;6.16;96.13;102382.28;5000276;28;20211;-77
2023/12/18 02:08:35;;;;;;;18.17;10.83;;;7.00;99.90;;;6.13;95.81;102367.34;5003003;28;20218;-76
2023/12/18 02:11:04;;;;;;;23.30;12.00;;;7.00;99.90;;;6.10;95.83;102361.38;5001022;28;20208;-77
2023/12/18 02:13:32;;;;;;;21.50;11.03;;;7.00;99.90;;;6.07;95.78;102356.25;4994521;28;20318;-76
2023/12/18 02:16:01;;;;;;;17.97;11.50;;;6.90;99.90;;;6.05;95.72;102352.84;5003047;28;20199;-76
2023/12/18 02:18:29;;;;;;;15.57;11.60;;;6.80;99.90;;;6.02;95.89;102347.69;5003268;28;20234;-76
2023/12/18 02:20:58;;;;;;;15.07;11.30;;;6.90;99.90;;;6.00;95.94;102338.94;4998185;28;20204;-75
2023/12/18 02:23:28;;;;;;;18.67;11.13;;;6.90;99.90;;;5.98;95.87;102333.72;5003543;28;20930;-77
2023/12/18 02:25:56;;;;;;;16.67;11.53;;;6.80;99.90;;;5.96;95.69;102332.94;5002171;28;20212;-76
2023/12/18 02:28:25;;;;;;;15.83;11.53;;;6.80;99.90;;;5.96;95.96;102338.28;5004043;28;20258;-77
2023/12/18 02:30:55;;;;;;;16.97;10.90;;;6.80;99.90;;;5.93;95.59;102334.94;5005598;28;20235;-76
2023/12/18 02:33:23;;;;;;;20.60;11.90;;;6.80;99.90;;;5.92;95.70;102339.44;5005751;28;20223;-77
2023/12/18 02:35:51;;;;;;;20.93;12.23;;;6.80;99.90;;;5.88;95.75;102343.22;5006137;28;20214;-76
2023/12/18 02:38:19;;;;;;;15.03;11.73;;;6.70;99.90;;;5.87;95.57;102344.16;5006063;28;20239;-75
2023/12/18 02:40:49;;;;;;;16.77;11.70;;;6.70;99.90;;;5.85;95.70;102347.81;5006159;28;20225;-75
2023/12/18 02:43:17;;;;;;;17.87;12.20;;;6.70;99.90;;;5.83;95.29;102344.38;5005270;28;20601;-78
2023/12/18 02:45:45;;;;;;;15.73;11.80;;;6.60;99.90;;;5.80;95.52;102358.72;4997377;28;20675;-76
2023/12/18 02:48:13;;;;;;;18.57;12.40;;;6.60;99.90;;;5.82;95.00;102346.16;5006322;28;20211;-75
2023/12/18 02:50:41;;;;;;;16.70;12.13;;;6.60;99.90;;;5.78;95.10;102343.81;5004376;28;20616;-76
2023/12/18 02:53:10;;;;;;;17.53;11.13;;;6.60;99.90;;;5.77;94.85;102339.44;5004225;28;20242;-77
2023/12/18 02:55:38;;;;;;;14.07;11.63;;;6.60;99.90;;;5.78;95.28;102349.13;5003318;28;20229;-76
2023/12/18 02:58:07;;;;;;;19.30;11.90;;;6.60;99.90;;;5.74;94.78;102352.91;5005566;28;20291;-77
2023/12/18 03:00:36;;;;;;;17.57;12.03;;;6.60;99.90;;;5.74;94.71;102339.63;5004859;28;20295;-75
2023/12/18 03:03:04;;;;;;;18.33;12.07;;;6.60;99.90;;;5.69;94.65;102345.19;5005829;28;20226;-75
2023/12/18 03:05:32;;;;;;;17.07;12.07;;;6.50;99.90;;;5.72;94.86;102330.88;5005394;28;20298;-75
2023/12/18 03:08:01;;;;;;;16.67;11.70;;;6.50;99.90;;;5.66;94.58;102339.19;5001358;28;20277;-76
2023/12/18 03:10:29;;;;;;;18.63;12.20;;;6.50;99.90;;;5.67;94.70;102340.91;5001479;28;20293;-76
2023/12/18 03:12:57;;;;;;;19.03;12.20;;;6.50;99.90;;;5.69;94.81;102339.00;5004991;28;20242;-76
2023/12/18 03:15:27;;;;;;;19.80;11.77;;;6.50;99.90;;;5.63;94.53;102343.75;5005625;28;20302;-76
2023/12/18 03:17:55;;;;;;;20.93;12.90;;;6.50;99.90;;;5.65;94.73;102342.81;5005459;28;20696;-77
2023/12/18 03:20:23;;;;;;;18.63;13.00;;;6.50;99.90;;;5.61;94.75;102340.34;5002914;28;20225;-76
2023/12/18 03:22:51;;;;;;;19.90;12.33;;;6.40;99.90;;;5.67;94.96;102338.25;5001842;28;20207;-77
2023/12/18 03:25:19;;;;;;;18.80;13.07;;;6.50;99.90;;;5.65;94.39;102338.34;5000985;28;20211;-76
2023/12/18 03:27:47;;;;;;;20.80;12.97;;;6.50;99.90;;;5.63;94.66;102338.44;4997178;28;20331;-76
2023/12/18 03:30:16;;;;;;;20.53;13.63;;;6.50;99.90;;;5.65;94.22;102340.16;5003698;28;20270;-75
2023/12/18 03:32:46;;;;;;;17.40;12.87;;;6.50;99.90;;;5.65;94.33;102341.00;5004638;28;20207;-76
2023/12/18 03:35:14;;;;;;;19.33;13.27;;;6.50;99.90;;;5.60;93.63;102335.97;5004523;28;20235;-77
2023/12/18 03:37:42;;;;;;;18.70;13.70;;;6.50;99.90;;;5.58;94.08;102332.53;5004857;28;20632;-76
2023/12/18 03:40:11;;;;;;;27.77;15.00;;;6.40;99.90;;;5.58;93.80;102340.50;5006974;28;20297;-77
2023/12/18 03:42:41;;;;;;;24.47;14.03;;;6.40;99.90;;;5.59;93.84;102334.25;5004183;28;20235;-76
2023/12/18 03:45:10;;;;;;;20.50;13.90;;;6.50;99.90;;;5.57;93.93;102335.28;5004789;28;20219;-77
2023/12/18 03:47:38;;;;;;;20.33;14.80;;;6.40;99.90;;;5.56;93.48;102318.50;5004361;28;20292;-76
2023/12/18 03:50:10;;;;;;;23.23;14.77;;;6.40;99.90;;;5.56;93.95;102315.84;5004177;28;20298;-77
2023/12/18 03:52:38;;;;;;;22.80;14.93;;;6.40;99.90;;;5.55;94.20;102311.47;5004185;28;20311;-74
2023/12/18 03:55:07;;;;;;;19.73;14.20;;;6.40;99.90;;;5.52;93.98;102311.66;5004627;28;20218;-77
2023/12/18 03:57:35;;;;;;;23.90;14.47;;;6.40;99.90;;;5.51;93.28;102320.53;5003887;28;20774;-76
2023/12/18 04:00:05;;;;;;;27.47;15.97;;;6.40;99.90;;;5.51;92.97;102317.88;4996906;28;20227;-76
2023/12/18 04:02:34;;;;;;;24.90;14.70;;;6.40;99.90;;;5.49;92.76;102313.63;5004532;28;20299;-75
2023/12/18 04:05:02;;;;;;;26.13;15.10;;;6.40;99.90;;;5.46;92.61;102314.66;5004114;28;20211;-74
2023/12/18 04:07:31;;;;;;;19.47;14.93;;;6.30;99.90;;;5.42;92.52;102318.44;5004424;28;20215;-76
2023/12/18 04:09:59;;;;;;;22.80;14.63;;;6.30;99.90;;;5.44;92.43;102324.53;5000280;28;20287;-76
2023/12/18 04:12:28;;;;;;;22.77;14.17;;;6.30;99.90;;;5.41;91.98;102308.75;4999485;28;20583;-78
2023/12/18 04:14:58;;;;;;;20.40;14.63;;;6.30;99.90;;;5.40;90.76;102307.06;5004257;28;20619;-78
2023/12/18 04:17:27;;;;;;;19.97;13.63;;;6.30;99.90;;;5.41;90.28;102311.41;5003746;28;20306;-77
2023/12/18 04:19:55;;;;;;;21.43;13.80;;;6.30;99.90;;;5.41;89.80;102313.22;5003616;28;20227;-76
2023/12/18 04:22:23;;;;;;;20.67;13.20;;;6.30;99.90;;;5.42;89.99;102310.47;5003975;28;20208;-77
2023/12/18 04:24:53;;;;;;;19.43;14.30;;;6.40;99.90;;;5.41;89.92;102313.22;5003947;28;20227;-77
2023/12/18 04:27:21;;;;;;;21.60;13.80;;;6.30;99.90;;;5.41;89.91;102314.06;5000350;28;20243;-77
2023/12/18 04:29:49;;;;;;;21.53;14.20;;;6.30;99.90;;;5.40;89.92;102315.03;5002309;28;20207;-78
2023/12/18 04:32:17;;;;;;;18.07;13.10;;;6.30;99.90;;;5.40;89.68;102317.69;5003389;28;20215;-77
2023/12/18 04:34:45;;;;;;;20.07;13.50;;;6.30;99.90;;;5.41;89.90;102327.34;5004053;28;20227;-76
2023/12/18 04:37:14;;;;;;;25.90;13.47;;;6.30;99.90;;;5.41;89.95;102308.75;5003982;28;20286;-76
2023/12/18 04:39:43;;;;;;;20.67;13.97;;;6.30;99.90;;;5.44;89.80;102319.22;5002919;28;20230;-78
2023/12/18 04:42:12;;;;;;;20.27;13.20;;;6.30;99.90;;;5.40;89.39;102312.38;4998743;28;20266;-77
2023/12/18 04:44:41;;;;;;;20.20;14.20;;;6.30;99.90;;;5.40;89.31;102312.38;5003378;28;20227;-77
2023/12/18 04:47:09;;;;;;;21.43;13.80;;;6.30;99.90;;;5.41;89.64;102313.22;5002895;28;20226;-77
2023/12/18 04:49:37;;;;;;;19.83;14.73;;;6.30;99.90;;;5.39;89.71;102315.97;4994830;28;20220;-79
2023/12/18 04:52:06;;;;;;;15.80;13.13;;;6.30;99.90;;;5.42;89.30;102318.44;5003040;28;20204;-76
2023/12/18 04:54:34;;;;;;;19.67;13.37;;;6.30;99.90;;;5.44;89.81;102318.38;5003502;28;20234;-76
2023/12/18 04:57:03;;;;;;;20.60;13.13;;;6.30;99.90;;;5.40;89.34;102312.38;5003025;28;20199;-75
2023/12/18 04:59:32;;;;;;;18.77;13.13;;;6.30;99.90;;;5.40;89.79;102328.31;5002770;28;20257;-78
2023/12/18 05:02:00;;;;;;;19.70;12.97;;;6.30;99.90;;;5.38;89.36;102319.56;4999583;28;20967;-77
2023/12/18 05:04:28;;;;;;;16.13;11.53;;;6.30;99.90;;;5.40;89.24;102327.44;4999163;28;20390;-77
2023/12/18 05:06:57;;;;;;;17.57;12.67;;;6.30;99.90;;;5.37;89.09;102317.88;4998125;28;20612;-78
2023/12/18 05:09:25;;;;;;;16.57;12.27;;;6.30;99.90;;;5.36;89.63;102332.06;5002544;28;20306;-77
2023/12/18 05:11:53;;;;;;;18.57;12.57;;;6.30;99.90;;;5.33;89.89;102326.94;5002600;28;20231;-77
2023/12/18 05:14:21;;;;;;;16.83;12.23;;;6.20;99.90;;;5.33;90.03;102329.59;5002850;28;20317;-76
2023/12/18 05:16:51;;;;;;;17.87;12.67;;;6.20;99.90;;;5.31;90.21;102318.19;5002465;28;20713;-78
2023/12/18 05:19:19;;;;;;;21.97;12.50;;;6.20;99.90;;;5.33;90.66;102329.59;5002238;28;20215;-78
2023/12/18 05:21:47;;;;;;;18.10;13.77;;;6.20;99.90;;;5.30;91.14;102324.47;4998899;28;20912;-76
2023/12/18 05:24:15;;;;;;;21.90;13.77;;;6.20;99.90;;;5.30;91.73;102311.19;5002800;28;20233;-78
2023/12/18 05:26:44;;;;;;;19.40;12.70;;;6.20;99.90;;;5.29;92.03;102313.91;5002616;28;20203;-77
2023/12/18 05:29:12;;;;;;;21.93;13.50;;;6.20;99.90;;;5.28;92.47;102323.69;5001928;28;20211;-78
2023/12/18 05:31:40;;;;;;;21.87;14.00;;;6.20;99.90;;;5.28;92.58;102317.50;5002451;28;20286;-78
2023/12/18 05:34:09;;;;;;;17.93;13.03;;;6.20;99.90;;;5.28;92.73;102313.06;5003090;28;20223;-77
2023/12/18 05:36:38;;;;;;;19.87;13.80;;;6.20;99.90;;;5.27;93.20;102321.13;5002285;28;20207;-78
2023/12/18 05:39:06;;;;;;;18.40;13.30;;;6.10;99.90;;;5.27;93.95;102315.81;5003409;28;20199;-79
2023/12/18 05:41:34;;;;;;;19.50;12.70;;;6.40;99.90;;;5.28;94.22;102317.50;5002679;28;20238;-78
2023/12/18 05:44:02;;;;;;;21.30;14.13;;;6.20;99.90;;;5.26;94.29;102325.59;4999234;28;20976;-76
2023/12/18 05:46:30;;;;;;;20.90;13.67;;;6.10;99.90;;;5.25;93.94;102323.88;4998834;28;20235;-77
2023/12/18 05:48:59;;;;;;;22.10;14.07;;;6.20;99.90;;;5.27;93.97;102327.31;5002472;28;20222;-78
2023/12/18 05:51:29;;;;;;;21.13;14.40;;;6.20;99.90;;;5.28;94.22;102323.69;4997164;28;20219;-78
2023/12/18 05:53:57;;;;;;;18.40;13.40;;;6.20;99.90;;;5.28;94.24;102323.69;5002158;28;20243;-78
2023/12/18 05:56:25;;;;;;;18.13;14.17;;;6.20;99.90;;;5.28;94.26;102326.34;4995625;28;20214;-78
2023/12/18 05:58:55;;;;;;;18.00;13.57;;;6.20;99.90;;;5.28;94.07;102323.69;5004848;28;20910;-78
2023/12/18 06:01:24;;;;;;;19.17;13.50;;;6.20;99.90;;;5.28;94.23;102321.03;5004826;28;20337;-78
2023/12/18 06:03:52;;;;;;;17.67;13.37;;;6.20;99.90;;;5.29;94.48;102319.22;5005011;28;20266;-77
2023/12/18 06:06:20;;;;;;;20.47;13.67;;;6.20;99.90;;;5.28;94.52;102326.34;4998315;28;20298;-77
2023/12/18 06:08:50;;;;;;;18.83;12.37;;;6.20;99.90;;;5.28;94.59;102329.00;5006027;28;20235;-78
2023/12/18 06:11:20;;;;;;;19.73;13.17;;;6.20;99.90;;;5.29;94.85;102333.38;5004832;28;20304;-77
2023/12/18 06:13:48;;;;;;;18.27;12.97;;;6.20;99.90;;;5.30;95.10;102343.06;5004926;28;20223;-78
2023/12/18 06:16:16;;;;;;;18.63;13.10;;;6.20;99.90;;;5.29;95.21;102333.38;5005638;28;20298;-77
2023/12/18 06:18:45;;;;;;;21.07;13.17;;;6.20;99.90;;;5.29;95.61;102325.41;5005474;28;20221;-76
2023/12/18 06:21:13;;;;;;;21.20;12.43;;;6.20;99.90;;;5.31;95.56;102342.09;5004696;28;20246;-78
2023/12/18 06:23:43;;;;;;;19.13;13.77;;;6.20;99.90;;;5.31;95.71;102344.75;5002919;28;20401;-79
2023/12/18 06:26:13;;;;;;;15.20;11.63;;;6.20;99.90;;;5.32;96.00;102343.81;5006406;28;20290;-76
2023/12/18 06:28:41;;;;;;;18.67;12.63;;;6.20;99.90;;;5.33;96.47;102357.94;5002222;28;20207;-79
2023/12/18 06:31:10;;;;;;;19.57;12.10;;;6.20;99.90;;;5.35;96.25;102353.41;5002652;28;20239;-78
2023/12/18 06:33:38;;;;;;;20.37;12.73;;;6.20;99.90;;;5.35;96.51;102362.22;5003614;28;20231;-75
2023/12/18 06:36:07;;;;;;;22.53;12.97;;;6.30;99.90;;;5.35;96.46;102366.69;5005359;28;20835;-78
2023/12/18 06:38:35;;;;;;;15.07;11.97;;;6.20;99.90;;;5.34;96.92;102359.66;4997190;28;20216;-77
2023/12/18 06:41:04;;;;;;;20.33;13.13;;;6.20;99.90;;;5.34;97.25;102363.16;5000340;28;20317;-78
2023/12/18 06:43:39;;;;;;;17.80;12.80;;;6.20;99.90;;;5.34;97.00;102365.81;4995966;28;20594;-78
2023/12/18 06:46:07;;;;;;;21.20;13.13;;;6.20;99.90;;;5.34;97.40;102360.50;5030576;23;20641;-72
2023/12/18 06:48:39;;;;;;;21.70;13.33;;;6.30;99.90;;;5.35;97.53;102350.75;5036279;28;20187;-72
2023/12/18 06:51:09;;;;;;;17.73;12.27;;;6.20;99.90;;;5.37;97.66;102356.84;5036214;28;20250;-72
2023/12/18 06:53:38;;;;;;;19.37;13.00;;;6.30;99.90;;;5.38;97.60;102353.22;5036179;28;20602;-72
2023/12/18 06:56:07;;;;;;;16.63;13.20;;;6.30;99.90;;;5.35;97.70;102340.97;5036181;28;20203;-72
2023/12/18 06:58:37;;;;;;;16.10;12.87;;;6.30;99.90;;;5.35;97.67;102356.06;5035852;28;20211;-72
2023/12/18 07:01:06;;;;;;;17.63;13.30;;;6.20;99.90;;;5.35;97.77;102356.91;5035922;28;20643;-72
2023/12/18 07:03:34;;;;;;;16.60;12.67;;;6.20;99.90;;;5.36;98.09;102371.06;5035970;28;20369;-72
2023/12/18 07:06:03;;;;;;;17.57;12.70;;;6.30;99.90;;;5.35;97.95;102361.38;5035901;28;20214;-72
2023/12/18 07:08:31;;;;;;;18.30;13.03;;;6.30;99.90;;;5.35;97.70;102362.22;5035479;28;20199;-72
2023/12/18 07:10:59;;;;;;;20.97;13.20;;;6.30;99.90;;;5.37;97.83;102370.97;5035969;28;20246;-72
2023/12/18 07:13:27;;;;;;;18.20;12.80;;;6.30;99.90;;;5.36;97.73;102363.94;5036497;28;20381;-72
2023/12/18 07:15:57;;;;;;;19.50;12.50;;;6.30;99.90;;;5.36;98.16;102366.59;5035535;28;20238;-72
2023/12/18 07:18:25;;;;;;;17.07;13.07;;;6.30;99.90;;;5.36;98.22;102353.31;5035781;28;20260;-72
2023/12/18 07:20:53;;;;;;;17.67;12.87;;;6.30;99.90;;;5.38;98.04;102355.88;5035676;28;20210;-72
2023/12/18 07:23:21;;;;;;;17.73;13.03;;;6.30;99.90;;;5.37;97.88;102360.34;5035246;28;20317;-73
2023/12/18 07:25:50;;;;;;;17.33;13.10;;;6.30;99.90;;;5.36;98.19;102342.69;5035339;28;20742;-73
2023/12/18 07:28:18;;;;;;;17.63;13.23;;;6.30;99.90;;;5.36;98.11;102348.00;5035226;28;20260;-73
2023/12/18 07:30:46;;;;;;;17.47;14.37;;;6.30;99.90;;;5.36;98.16;102363.09;5035275;28;20645;-73
2023/12/18 07:33:16;;;;;;;21.10;13.37;;;6.30;99.90;;;5.35;98.24;102367.53;5035119;28;20261;-73
2023/12/18 07:35:44;;;;;;;16.80;13.30;;;6.20;99.90;;;5.35;98.28;102359.56;5035465;28;20206;-73
2023/12/18 07:38:14;;;;;;;21.07;13.60;;;6.20;99.90;;;5.36;98.31;102353.31;5035360;28;20293;-73
2023/12/18 07:40:42;;;;;;;17.77;14.13;;;6.20;99.90;;;5.37;98.58;102357.69;5035088;28;20567;-73
2023/12/18 07:43:10;;;;;;;19.43;12.80;;;6.30;99.90;;;5.37;98.38;102360.34;5035183;28;20317;-73
2023/12/18 07:45:38;;;;;;;18.73;13.10;;;6.30;99.90;;;5.37;98.58;102368.31;5035391;28;20207;-72
2023/12/18 07:48:07;;;;;;;16.67;12.03;;;6.30;99.90;;;5.39;98.56;102365.56;5034694;28;20238;-58
2023/12/18 07:50:38;;;;;;;18.03;13.30;;;6.30;99.90;;;5.39;98.46;102363.78;5035148;28;20209;-67
2023/12/18 07:53:06;;;;;;;19.70;13.30;;;6.30;99.90;;;5.38;98.52;102371.81;5035058;28;20225;-68
2023/12/18 07:55:34;;;;;;;20.40;14.00;;;6.30;99.90;;;5.37;98.37;102370.97;5035089;28;20206;-67
2023/12/18 07:58:02;;;;;;;15.07;12.80;;;6.20;99.90;;;5.39;98.40;102377.06;5035002;28;20305;-67
2023/12/18 08:00:31;;;;;;;18.07;13.83;;;6.30;99.90;;;5.39;98.52;102369.06;5034987;28;20230;-68
2023/12/18 08:03:00;;;;;;;19.50;13.43;;;6.30;99.90;;;5.40;98.51;102373.47;5034785;28;20237;-68
2023/12/18 08:05:29;;;;;;;21.73;13.53;;;6.40;99.90;;;5.39;98.50;102371.72;5034525;28;20677;-68
2023/12/18 08:07:58;;;;;;;21.60;13.63;;;6.30;99.90;;;5.41;98.55;102379.63;5034889;28;20230;-68
2023/12/18 08:10:27;;;;;;;19.00;13.83;;;6.30;99.90;;;5.41;98.78;102371.66;5034796;28;20207;-68
2023/12/18 08:12:55;;;;;;;17.33;14.17;;;6.30;99.90;;;5.41;98.61;102367.19;5034365;28;20640;-68
2023/12/18 08:15:23;;;;;;;18.60;14.03;;;6.30;99.90;;;5.41;98.52;102361.03;5034430;28;20230;-68
2023/12/18 08:17:52;;;;;;;19.27;13.93;;;6.30;99.90;;;5.40;98.94;102362.84;5034684;28;20214;-68
2023/12/18 08:20:20;;;;;;;18.13;14.20;;;6.30;99.90;;;5.40;98.88;102368.16;5033755;28;20207;-68
2023/12/18 08:22:48;;;;;;;19.97;14.37;;;6.30;99.90;;;5.40;99.04;102365.50;5034379;28;20661;-68
2023/12/18 08:25:20;;;;;;;21.53;14.30;;;6.30;99.90;;;5.40;98.84;102352.22;5034535;28;20210;-68
2023/12/18 08:27:48;;;;;;;20.33;13.90;;;6.30;99.90;;;5.40;99.10;102349.56;5034202;28;20620;-68
2023/12/18 08:30:16;;;;;;;20.37;14.93;;;6.30;99.90;;;5.42;99.05;102341.47;5034403;28;20217;-65
2023/12/18 08:32:45;;;;;;;16.90;13.50;;;6.30;99.90;;;5.42;99.40;102346.78;5033959;28;20241;-65
2023/12/18 08:35:14;;;;;;;19.03;13.97;;;6.30;99.90;;;5.41;99.28;102330.00;5034298;28;20260;-65
2023/12/18 08:37:42;;;;;;;21.37;13.80;;;6.30;99.90;;;5.41;98.96;102345.94;5034242;28;20313;-65
2023/12/18 08:40:11;;;;;;;18.07;13.63;;;6.30;99.90;;;5.41;99.27;102345.09;5033922;28;20221;-65
2023/12/18 08:42:41;;;;;;;20.23;14.20;;;6.30;99.90;;;5.41;99.45;102335.31;5033619;28;20774;-67
2023/12/18 08:45:10;;;;;;;21.77;14.80;;;6.30;99.90;;;5.42;99.48;102352.97;5033870;28;20708;-66
2023/12/18 08:47:38;;;;;;;21.17;15.03;;;6.30;99.90;;;5.43;99.35;102354.69;5033837;28;20308;-66
2023/12/18 08:50:07;;;;;;;23.40;15.50;;;6.30;99.90;;;5.45;99.69;102352.78;5034037;28;20261;-66
2023/12/18 08:52:35;;;;;;;19.30;14.93;;;6.30;99.90;;;5.45;99.70;102352.78;5033930;28;20227;-67
2023/12/18 08:55:04;;;;;;;19.37;15.47;;;6.30;99.90;;;5.46;99.53;102332.41;5033971;28;20235;-67
2023/12/18 08:57:32;;;;;;;23.13;15.30;;;6.40;99.90;;;5.49;99.63;102342.84;5033637;28;20665;-66
2023/12/18 09:00:04;;;;;;;24.37;15.43;;;6.40;99.90;;;5.47;99.07;102334.97;5033823;28;20210;-66
2023/12/18 09:02:32;;;;;;;20.63;15.37;;;6.40;99.90;;;5.49;99.16;102346.34;5033738;28;20269;-66
2023/12/18 09:05:00;;;;;;;22.80;14.93;;;6.40;99.90;;;5.48;99.09;102335.84;5033420;28;20754;-66
2023/12/18 09:07:28;;;;;;;20.47;15.13;;;6.40;99.90;;;5.48;99.16;102326.03;5033745;28;20237;-67
2023/12/18 09:09:56;;;;;;;19.83;14.67;;;6.40;99.90;;;5.49;99.13;102326.91;5033741;28;20213;-67
2023/12/18 09:12:25;;;;;;;18.97;15.20;;;6.40;99.90;;;5.48;98.87;102328.69;5033594;28;20589;-67
2023/12/18 09:14:53;;;;;;;24.80;16.37;;;6.40;99.90;;;5.48;98.91;102326.03;5033360;28;20688;-67
2023/12/18 09:17:22;;;;;;;23.03;16.40;;;6.40;99.90;;;5.47;98.75;102332.31;5033618;28;20294;-66
2023/12/18 09:19:51;;;;;;;26.63;17.40;;;6.40;99.90;;;5.47;98.73;102329.66;5033590;28;20207;-66
2023/12/18 09:22:19;;;;;;;23.77;17.07;;;6.40;99.90;;;5.46;98.91;102330.59;5033458;28;20262;-67
2023/12/18 09:24:47;;;;;;;24.17;17.53;;;6.30;99.90;;;5.46;98.66;102322.63;5033583;28;20306;-67
2023/12/18 09:27:15;;;;;;;24.30;16.07;;;6.40;99.90;;;5.48;99.03;102322.56;5033183;28;20242;-67
2023/12/18 09:29:43;;;;;;;24.97;17.70;;;6.40;99.90;;;5.47;99.20;102324.34;5033164;28;20606;-67
2023/12/18 09:32:11;;;;;;;28.07;19.77;;;6.40;99.90;;;5.49;99.23;102322.44;5033199;28;20249;-67
2023/12/18 09:34:41;;;;;;;26.57;17.80;;;6.40;99.90;;;5.51;99.46;102317.88;5033476;28;20582;-66
2023/12/18 09:37:09;;;;;;;26.60;17.73;;;6.40;99.90;;;5.51;99.31;102328.50;5033517;28;20297;-66
2023/12/18 09:39:40;;;;;;;23.50;16.97;;;6.40;99.90;;;5.49;99.21;102321.59;5033437;28;20376;-66
2023/12/18 09:42:11;;;;;;;24.87;16.67;;;6.40;99.90;;;5.50;99.43;102337.44;5033247;28;20195;-67
2023/12/18 09:44:47;;;;;;;25.03;17.73;;;6.40;99.90;;;5.51;99.64;102325.84;5033420;28;20274;-67
2023/12/18 09:47:17;;;;;;;25.60;17.63;;;6.40;99.90;;;5.55;99.59;102324.75;5033008;28;20241;-67
2023/12/18 09:49:46;;;;;;;22.17;16.70;;;6.40;99.90;;;5.53;99.76;102321.34;5033276;28;20260;-67
2023/12/18 09:52:17;;;;;;;23.93;16.77;;;6.40;99.90;;;5.51;99.74;102320.53;5033174;28;20281;-67
2023/12/18 09:54:47;;;;;;;21.87;16.60;;;6.40;99.90;;;5.53;99.73;102323.13;5033217;28;20219;-67
2023/12/18 09:57:19;;;;;;;24.07;15.97;;;6.40;99.90;;;5.51;100.00;102315.22;5032899;28;20551;-66
2023/12/18 09:59:47;;;;;;;27.43;17.03;;;6.40;99.90;;;5.50;100.00;102313.53;5033198;28;20191;-66
2023/12/18 10:02:18;;;;;;;26.23;16.53;;;6.40;99.90;;;5.49;100.00;102314.47;5032766;28;20317;-66
2023/12/18 10:04:47;;;;;;;25.77;17.00;;;6.40;99.90;;;5.50;100.00;102310.88;5032809;28;20207;-66
2023/12/18 10:07:15;;;;;;;25.20;16.80;;;6.40;99.90;;;5.52;100.00;102308.97;5032772;28;20249;-66
2023/12/18 10:09:44;;;;;;;25.10;16.90;;;6.40;99.90;;;5.52;100.00;102311.66;5033563;28;20294;-66
2023/12/18 10:12:13;;;;;;;22.80;16.87;;;6.40;99.90;;;5.53;100.00;102312.50;5032680;28;20227;-66
2023/12/18 10:14:41;;;;;;;24.50;16.27;;;6.40;99.90;;;5.54;100.00;102295.63;5033061;28;20297;-66
2023/12/18 10:17:11;;;;;;;24.20;16.07;;;6.40;99.90;;;5.55;100.00;102298.16;5032672;28;20634;-66
2023/12/18 10:19:43;;;;;;;22.10;15.90;;;6.40;99.90;;;5.54;100.00;102299.16;5032976;28;20827;-66